createdAt,value
2022-09-28T00:01:25.818Z,88.80
2022-09-28T00:03:59.989Z,88.62
2022-09-28T00:06:30.883Z,88.26
2022-09-28T00:08:59.328Z,88.21
2022-09-28T00:11:29.314Z,88.62
2022-09-28T00:14:02.517Z,88.61
2022-09-28T00:16:34.982Z,88.82
2022-09-28T00:19:05.167Z,88.85
2022-09-28T00:21:37.185Z,88.58
2022-09-28T00:24:15.061Z,88.28
2022-09-28T00:26:52.314Z,88.01
2022-09-28T00:29:29.576Z,87.93
2022-09-28T00:32:17.738Z,87.97
2022-09-28T00:34:46.202Z,87.97
2022-09-28T00:37:16.031Z,88.25
2022-09-28T00:39:44.915Z,88.21
2022-09-28T00:42:16.365Z,88.21
2022-09-28T00:44:51.301Z,88.40
2022-09-28T00:47:46.810Z,87.92
2022-09-28T00:50:18.925Z,88.25
2022-09-28T00:53:11.907Z,88.56
2022-09-28T00:55:49.855Z,88.55
2022-09-28T00:58:30.291Z,88.63
2022-09-28T01:01:00.188Z,88.42
2022-09-28T01:03:29.830Z,88.09
2022-09-28T01:06:00.670Z,88.03
2022-09-28T01:08:31.961Z,88.08
2022-09-28T01:11:01.099Z,87.06
2022-09-28T01:13:31.762Z,88.04
2022-09-28T01:16:14.844Z,88.95
2022-09-28T01:19:22.177Z,89.86
2022-09-28T01:22:21.205Z,88.87
2022-09-28T01:25:00.873Z,88.44
2022-09-28T01:27:34.413Z,89.11
2022-09-28T01:30:08.219Z,89.27
2022-09-28T01:33:12.800Z,89.26
2022-09-28T01:36:00.155Z,89.58
2022-09-28T01:38:46.743Z,89.17
2022-09-28T01:41:18.114Z,89.71
2022-09-28T01:43:54.934Z,90.17
2022-09-28T01:46:44.944Z,90.34
2022-09-28T01:49:58.880Z,90.41
2022-09-28T01:52:36.559Z,90.01
2022-09-28T01:55:21.353Z,90.24
2022-09-28T01:57:54.014Z,90.55
2022-09-28T02:00:25.217Z,90.31
2022-09-28T02:03:02.360Z,90.23
2022-09-28T02:05:55.048Z,89.83
2022-09-28T02:08:44.596Z,89.91
2022-09-28T02:11:19.634Z,89.66
2022-09-28T02:14:05.792Z,89.94
2022-09-28T02:16:40.426Z,90.26
2022-09-28T02:19:16.762Z,90.25
2022-09-28T02:22:08.851Z,90.36
2022-09-28T02:24:59.067Z,90.53
2022-09-28T02:27:58.052Z,90.84
2022-09-28T02:30:26.729Z,90.38
2022-09-28T02:33:02.161Z,89.87
2022-09-28T02:35:30.785Z,90.82
2022-09-28T02:37:59.328Z,91.57
2022-09-28T02:40:34.348Z,91.63
2022-09-28T02:43:13.301Z,91.98
2022-09-28T02:46:13.065Z,91.59
2022-09-28T02:49:30.250Z,91.27
2022-09-28T02:52:29.567Z,90.89
2022-09-28T02:55:18.959Z,90.52
2022-09-28T02:58:21.687Z,90.30
2022-09-28T03:01:43.325Z,88.60
2022-09-28T03:04:24.301Z,90.32
2022-09-28T03:07:32.980Z,91.33
2022-09-28T03:10:19.756Z,91.87
2022-09-28T03:12:49.603Z,92.13
2022-09-28T03:15:30.893Z,92.19
2022-09-28T03:18:00.118Z,92.35
2022-09-28T03:20:30.692Z,92.25
2022-09-28T03:25:47.525Z,92.71
2022-09-28T03:28:16.392Z,92.82
2022-09-28T03:30:44.703Z,92.54
2022-09-28T03:33:13.188Z,92.44
2022-09-28T03:35:41.684Z,92.39
2022-09-28T03:38:10.103Z,92.84
2022-09-28T03:40:39.339Z,92.55
2022-09-28T03:43:07.946Z,92.40
2022-09-28T03:45:36.404Z,92.41
2022-09-28T03:48:04.938Z,91.89
2022-09-28T03:50:35.268Z,90.97
2022-09-28T03:53:04.845Z,91.07
2022-09-28T03:55:33.356Z,91.27
2022-09-28T03:58:01.815Z,90.86
2022-09-28T04:00:31.205Z,91.22
2022-09-28T04:02:59.776Z,91.62
2022-09-28T04:05:29.210Z,91.56
2022-09-28T04:07:58.125Z,91.19
2022-09-28T04:10:26.728Z,90.77
2022-09-28T04:12:57.355Z,90.98
2022-09-28T04:15:26.463Z,91.34
2022-09-28T04:17:55.053Z,91.46
2022-09-28T04:21:09.103Z,91.20
2022-09-28T04:23:44.745Z,91.51
2022-09-28T04:26:25.360Z,91.92
2022-09-28T04:29:12.860Z,92.33
2022-09-28T04:31:47.182Z,92.51
2022-09-28T04:34:23.408Z,92.19
2022-09-28T04:36:51.862Z,92.37
2022-09-28T04:39:20.617Z,92.44
2022-09-28T04:41:57.260Z,92.04
2022-09-28T04:44:25.682Z,91.60
2022-09-28T04:47:04.206Z,92.17
2022-09-28T04:49:35.504Z,92.78
2022-09-28T04:52:17.841Z,91.54
2022-09-28T04:54:48.700Z,90.77
2022-09-28T04:57:17.939Z,90.92
2022-09-28T04:59:46.447Z,91.33
2022-09-28T05:02:15.398Z,91.52
2022-09-28T05:05:02.352Z,92.01
2022-09-28T05:07:46.078Z,91.99
2022-09-28T05:10:14.957Z,92.00
2022-09-28T05:12:43.488Z,91.92
2022-09-28T05:15:12.411Z,91.63
2022-09-28T05:17:40.917Z,90.77
2022-09-28T05:20:21.951Z,90.56
2022-09-28T05:22:50.381Z,90.55
2022-09-28T05:25:19.561Z,91.04
2022-09-28T05:28:43.170Z,90.48
2022-09-28T05:31:37.216Z,90.32
2022-09-28T05:34:20.492Z,90.82
2022-09-28T05:36:49.372Z,90.75
2022-09-28T05:39:19.007Z,90.78
2022-09-28T05:41:47.542Z,91.00
2022-09-28T05:44:16.207Z,90.57
2022-09-28T05:46:44.939Z,90.31
2022-09-28T05:49:13.968Z,90.25
2022-09-28T05:51:42.687Z,89.99
2022-09-28T05:54:11.413Z,90.01
2022-09-28T05:56:42.944Z,90.14
2022-09-28T05:59:12.265Z,89.80
2022-09-28T06:01:40.888Z,89.66
2022-09-28T06:04:11.310Z,89.56
2022-09-28T06:06:40.388Z,89.28
2022-09-28T06:09:09.035Z,89.27
2022-09-28T06:11:46.828Z,89.22
2022-09-28T06:14:24.264Z,89.21
2022-09-28T06:16:52.847Z,89.05
2022-09-28T06:19:21.633Z,89.43
2022-09-28T06:22:30.931Z,89.64
2022-09-28T06:25:07.025Z,89.51
2022-09-28T06:27:36.276Z,89.63
2022-09-28T06:30:05.658Z,89.84
2022-09-28T06:32:34.201Z,89.15
2022-09-28T06:35:02.646Z,87.24
2022-09-28T06:37:33.253Z,85.87
2022-09-28T06:40:03.283Z,85.40
2022-09-28T06:42:32.200Z,84.44
2022-09-28T06:45:26.687Z,84.59
2022-09-28T06:48:23.782Z,83.70
2022-09-28T06:50:52.405Z,83.37
2022-09-28T06:53:29.693Z,83.05
2022-09-28T06:56:02.651Z,82.64
2022-09-28T06:58:32.440Z,81.53
2022-09-28T07:01:02.186Z,81.45
2022-09-28T07:03:35.839Z,81.27
2022-09-28T07:06:04.545Z,81.01
2022-09-28T07:09:04.871Z,79.98
2022-09-28T07:11:46.766Z,80.03
2022-09-28T07:14:48.006Z,80.01
2022-09-28T07:17:17.418Z,79.79
2022-09-28T07:19:45.972Z,79.93
2022-09-28T07:22:18.926Z,79.62
2022-09-28T07:24:49.047Z,78.61
2022-09-28T07:27:37.397Z,77.30
2022-09-28T07:30:17.985Z,76.45
2022-09-28T07:33:07.981Z,76.82
2022-09-28T07:35:55.770Z,77.00
2022-09-28T07:38:30.996Z,76.78
2022-09-28T07:41:11.706Z,76.68
2022-09-28T07:43:45.125Z,76.59
2022-09-28T07:46:13.608Z,76.08
2022-09-28T07:49:11.481Z,75.33
2022-09-28T07:52:28.943Z,75.11
2022-09-28T07:56:07.330Z,74.79
2022-09-28T07:58:43.810Z,74.10
2022-09-28T08:01:55.983Z,73.61
2022-09-28T08:04:25.547Z,72.71
2022-09-28T08:06:53.887Z,72.56
2022-09-28T08:09:22.299Z,73.02
2022-09-28T08:12:59.139Z,70.53
2022-09-28T08:15:52.025Z,67.21
2022-09-28T08:18:27.750Z,66.33
2022-09-28T08:21:14.940Z,67.13
2022-09-28T08:23:43.313Z,66.42
2022-09-28T08:26:15.516Z,65.54
2022-09-28T08:28:47.026Z,65.58
2022-09-28T08:31:36.424Z,64.08
2022-09-28T08:34:46.292Z,61.37
2022-09-28T08:38:14.415Z,62.76
2022-09-28T08:41:17.822Z,61.79
2022-09-28T08:44:49.979Z,62.39
2022-09-28T08:48:04.674Z,61.81
2022-09-28T08:50:57.242Z,59.91
2022-09-28T08:53:46.022Z,59.88
2022-09-28T08:56:40.225Z,58.06
2022-09-28T08:59:22.643Z,58.32
2022-09-28T09:02:04.128Z,58.48
2022-09-28T09:04:34.756Z,57.39
2022-09-28T09:07:42.628Z,57.16
2022-09-28T09:10:50.970Z,57.75
2022-09-28T09:14:27.722Z,57.38
2022-09-28T09:17:29.730Z,57.63
2022-09-28T09:20:51.854Z,56.73
2022-09-28T09:23:57.010Z,55.85
2022-09-28T09:26:40.344Z,56.20
2022-09-28T09:29:50.339Z,56.40
2022-09-28T09:32:56.130Z,55.82
2022-09-28T09:35:52.636Z,54.67
2022-09-28T09:38:43.470Z,54.03
2022-09-28T09:41:52.819Z,51.38
2022-09-28T09:46:14.838Z,51.77
2022-09-28T09:49:46.049Z,50.69
2022-09-28T09:55:14.746Z,50.29
2022-09-28T09:58:10.098Z,49.86
2022-09-28T10:00:51.790Z,50.79
2022-09-28T10:03:34.920Z,48.32
2022-09-28T10:06:28.233Z,46.72
2022-09-28T10:09:11.157Z,48.13
2022-09-28T10:11:52.238Z,47.82
2022-09-28T10:14:27.590Z,47.42
2022-09-28T10:17:13.814Z,46.69
2022-09-28T10:20:00.776Z,45.56
2022-09-28T10:23:02.262Z,46.31
2022-09-28T10:25:36.610Z,47.09
2022-09-28T10:28:16.983Z,47.95
2022-09-28T10:30:45.778Z,48.13
2022-09-28T10:33:35.475Z,48.23
2022-09-28T10:36:07.564Z,47.90
2022-09-28T10:38:36.467Z,48.06
2022-09-28T10:41:13.738Z,48.59
2022-09-28T10:44:19.316Z,49.64
2022-09-28T10:47:10.051Z,48.82
2022-09-28T10:49:47.298Z,48.85
2022-09-28T10:52:40.470Z,48.05
2022-09-28T10:55:33.674Z,48.47
2022-09-28T10:58:48.954Z,47.32
2022-09-28T11:01:33.161Z,47.88
2022-09-28T11:04:08.146Z,47.57
2022-09-28T11:06:41.126Z,47.96
2022-09-28T11:09:31.940Z,47.79
2022-09-28T11:12:07.200Z,47.63
2022-09-28T11:14:42.729Z,47.39
2022-09-28T11:17:29.872Z,44.12
2022-09-28T11:20:27.812Z,42.59
2022-09-28T11:23:18.187Z,41.40
2022-09-28T11:26:06.053Z,41.85
2022-09-28T11:28:38.377Z,39.60
2022-09-28T11:31:14.347Z,41.69
2022-09-28T11:34:17.056Z,42.31
2022-09-28T11:37:31.385Z,42.19
2022-09-28T11:40:29.699Z,43.59
2022-09-28T11:43:19.163Z,42.44
2022-09-28T11:46:18.916Z,43.22
2022-09-28T11:49:05.298Z,42.02
2022-09-28T11:51:37.643Z,42.53
2022-09-28T11:54:22.631Z,39.54
2022-09-28T11:56:53.965Z,40.94
2022-09-28T11:59:50.253Z,38.81
2022-09-28T12:02:38.274Z,38.63
2022-09-28T12:05:52.178Z,39.07
2022-09-28T12:08:32.226Z,38.01
2022-09-28T12:11:22.136Z,39.10
2022-09-28T12:14:41.024Z,40.41
2022-09-28T12:17:11.852Z,40.07
2022-09-28T12:19:51.461Z,40.43
2022-09-28T12:23:08.068Z,41.18
2022-09-28T12:26:06.527Z,42.11
2022-09-28T12:29:13.244Z,42.42
2022-09-28T12:32:01.107Z,42.55
2022-09-28T12:34:29.671Z,42.42
2022-09-28T12:37:16.840Z,40.23
2022-09-28T12:39:57.952Z,40.16
2022-09-28T12:42:55.977Z,39.53
2022-09-28T12:45:53.112Z,40.17
2022-09-28T12:51:54.701Z,39.38
2022-09-28T12:54:39.044Z,39.26
2022-09-28T12:57:26.210Z,40.01
2022-09-28T13:00:00.923Z,39.88
2022-09-28T13:03:03.088Z,39.87
2022-09-28T13:06:17.293Z,39.89
2022-09-28T13:09:10.131Z,38.09
2022-09-28T13:12:13.938Z,36.93
2022-09-28T13:15:10.033Z,35.96
2022-09-28T13:17:53.612Z,33.54
2022-09-28T13:20:41.975Z,33.70
2022-09-28T13:23:40.512Z,34.95
2022-09-28T13:26:23.921Z,34.96
2022-09-28T13:28:57.046Z,35.56
2022-09-28T13:31:33.043Z,34.90
2022-09-28T13:34:04.693Z,35.58
2022-09-28T13:36:37.841Z,36.83
2022-09-28T13:39:37.911Z,38.11
2022-09-28T13:42:09.409Z,39.07
2022-09-28T13:45:12.065Z,39.47
2022-09-28T13:47:52.582Z,40.45
2022-09-28T13:50:48.106Z,40.51
2022-09-28T13:53:54.474Z,39.85
2022-09-28T13:56:45.045Z,39.02
2022-09-28T13:59:28.138Z,39.12
2022-09-28T14:02:22.643Z,39.16
2022-09-28T14:05:02.209Z,39.74
2022-09-28T14:07:36.598Z,39.60
2022-09-28T14:10:08.017Z,38.86
2022-09-28T14:12:36.206Z,38.97
2022-09-28T14:15:30.033Z,39.30
2022-09-28T14:18:25.912Z,39.15
2022-09-28T14:21:03.039Z,38.81
2022-09-28T14:24:03.526Z,39.51
2022-09-28T14:26:47.207Z,40.09
2022-09-28T14:29:28.619Z,39.67
2022-09-28T14:32:20.887Z,38.71
2022-09-28T14:34:59.996Z,37.39
2022-09-28T14:37:54.861Z,37.57
2022-09-28T14:40:50.426Z,38.07
2022-09-28T14:43:34.533Z,37.33
2022-09-28T14:46:27.401Z,37.26
2022-09-28T14:49:17.661Z,37.49
2022-09-28T14:51:51.750Z,37.25
2022-09-28T14:54:26.693Z,36.67
2022-09-28T14:56:57.620Z,37.00
2022-09-28T14:59:36.229Z,37.76
2022-09-28T15:02:10.788Z,37.77
2022-09-28T15:04:50.808Z,38.16
2022-09-28T15:07:42.417Z,38.65
2022-09-28T15:10:33.867Z,39.29
2022-09-28T15:13:06.369Z,39.52
2022-09-28T15:15:39.021Z,39.80
2022-09-28T15:18:16.802Z,40.37
2022-09-28T15:20:51.695Z,40.86
2022-09-28T15:23:44.438Z,41.22
2022-09-28T15:26:34.403Z,41.63
2022-09-28T15:29:05.690Z,41.69
2022-09-28T15:31:36.512Z,41.98
2022-09-28T15:34:23.246Z,42.14
2022-09-28T15:36:56.536Z,42.52
2022-09-28T15:39:34.192Z,42.89
2022-09-28T15:42:04.097Z,43.44
2022-09-28T15:44:37.207Z,43.87
2022-09-28T15:47:16.095Z,44.49
2022-09-28T15:49:57.340Z,44.99
2022-09-28T15:52:36.679Z,45.31
2022-09-28T15:55:17.734Z,46.00
2022-09-28T15:57:50.431Z,46.22
